Union Trader — SVAX6 — position and weather

sailwx.info

Track history (hours):
 
Tides and Currents Weather Stations Pressure Air Temp Water Temp Dewpoint Dewpoint Depression Visibility Wind Speed Wind Dir Waves Ship Positions

Union Trader

Last reported at 2016-Feb-08 05:27 UTC. Time now 2016-Feb-08 06:08 UTC.
Position N 36°08' W 005°22'.

Length 190 m; draft 12.7 m.

Type: Cargo ship. MMSI: 240982000.

Date/timePositionNaut miles runAvg speedWind from/ knotsBaromVisibWave heightAir tempDewpointWater temp
2016-Feb-08 05:27N 36°08' W 005°22'0 0.0
2016-Feb-08 03:30N 36°08' W 005°22'0 0.0
2016-Feb-08 02:34N 36°08' W 005°22'0 0.0
2016-Feb-08 01:34N 36°08' W 005°22'0 0.1
2016-Feb-08 00:31N 36°08' W 005°22'0 0.1
2016-Feb-07 23:27N 36°08' W 005°22'0 0.2
2016-Feb-07 22:34N 36°08' W 005°22'0 0.2
2016-Feb-07 21:25N 36°08' W 005°22'0 0.0
2016-Feb-07 20:34N 36°08' W 005°22'0 0.0
2016-Feb-07 19:33N 36°08' W 005°22'1 0.5
2016-Feb-07 18:33N 36°08' W 005°22'4 4.3
2016-Feb-07 17:33N 36°03' W 005°22'8 8.1
2016-Feb-07 16:34N 35°58' W 005°29'1914.4
2016-Feb-07 15:16N 35°55' W 005°52'10713.1
2016-Feb-07 07:08N 36°18' W 008°01'813.0
2016-Feb-07 06:32N 36°20' W 008°10'1313.0
2016-Feb-07 05:32N 36°23' W 008°25'1312.5
2016-Feb-07 04:29N 36°26' W 008°41'1212.2
2016-Feb-07 03:32N 36°29' W 008°55'1313.3
2016-Feb-07 02:32N 36°33' W 009°11'1813.0
2016-Feb-07 01:08N 36°44' W 009°29'811.6
2016-Feb-07 00:29N 36°50' W 009°34'1212.2
2016-Feb-06 23:32N 37°02' W 009°37'1312.7
2016-Feb-06 22:32N 37°14' W 009°41'1313.1
2016-Feb-06 21:32N 37°27' W 009°44'1211.6
2016-Feb-06 20:32N 37°38' W 009°48'1312.8
2016-Feb-06 19:32N 37°51' W 009°51'1313.0
2016-Feb-06 18:32N 38°03' W 009°55'1313.7
2016-Feb-06 17:33N 38°16' W 009°59'1313.1
2016-Feb-06 16:32N 38°29' W 010°03'1212.1
2016-Feb-06 15:32N 38°41' W 010°06'1312.8
2016-Feb-06 14:32N 38°54' W 010°06'1211.6
2016-Feb-06 13:32N 39°06' W 010°06'1313.2
2016-Feb-06 12:33N 39°19' W 010°06'1111.3
2016-Feb-06 11:32N 39°30' W 010°06'1312.7
2016-Feb-06 10:32N 39°43' W 010°06'1312.7
2016-Feb-06 09:32N 39°56' W 010°06'1312.8
2016-Feb-06 08:32N 40°08' W 010°06'1312.9
2016-Feb-06 07:32N 40°21' W 010°06'1312.3
2016-Feb-06 06:29N 40°34' W 010°05'1212.3
2016-Feb-06 05:32N 40°46' W 010°05'1312.8
2016-Feb-06 04:32N 40°59' W 010°06'1312.9
2016-Feb-06 03:32N 41°12' W 010°06'1312.8
2016-Feb-06 02:32N 41°24' W 010°06'1211.8
2016-Feb-06 01:29N 41°37' W 010°06'1112.1
2016-Feb-06 00:32N 41°48' W 010°06'  
2016-Feb-03 13:07N 50°26' W 000°24'1110.5
2016-Feb-03 12:07N 50°29' W 000°08'710.7
2016-Feb-03 11:25N 50°31' E 000°03'910.9
2016-Feb-03 10:33N 50°34' E 000°17'3811.3
2016-Feb-03 07:13N 50°54' E 001°08'711.0
2016-Feb-03 06:34N 50°59' E 001°16'1111.3
2016-Feb-03 05:33N 51°06' E 001°30'1212.1
2016-Feb-03 04:34N 51°13' E 001°45'1313.1
2016-Feb-03 03:34N 51°25' E 001°56'1312.9
2016-Feb-03 02:34N 51°35' E 002°08'1312.5
2016-Feb-03 01:34N 51°44' E 002°22'397 8.8
2016-Feb-01 04:26N 57°20' E 008°27'2111.3
2016-Feb-01 02:32N 57°33' E 008°59'1111.1
2016-Feb-01 01:33N 57°39' E 009°15'1111.1
2016-Feb-01 00:33N 57°46' E 009°31'1010.3
2016-Jan-31 23:33N 57°49' E 009°50'1110.6
2016-Jan-31 22:33N 57°49' E 010°10'1010.5
2016-Jan-31 21:33N 57°49' E 010°29'10 9.9
2016-Jan-31 20:34N 57°48' E 010°48'1111.2
2016-Jan-31 19:33N 57°40' E 011°03'1211.7
2016-Jan-31 18:33N 57°32' E 011°18'1111.5
2016-Jan-31 17:33N 57°22' E 011°30'1212.3
2016-Jan-31 16:33N 57°10' E 011°38'1212.5
2016-Jan-31 15:33N 56°59' E 011°45'1211.8
2016-Jan-31 14:33N 56°47' E 011°52'1111.2
2016-Jan-31 13:34N 56°37' E 011°45'8410.4
2016-Jan-31 05:33N 55°17' E 011°04'1010.3
2016-Jan-31 04:33N 55°07' E 010°59'1010.1
2016-Jan-31 03:34N 54°57' E 010°55'1010.1
2016-Jan-31 02:34N 54°47' E 010°49'9 9.2
2016-Jan-31 01:33N 54°38' E 010°53'10 9.8
2016-Jan-31 00:34N 54°36' E 011°09'1010.0
2016-Jan-30 23:34N 54°32' E 011°25'1010.3
2016-Jan-30 22:34N 54°28' E 011°41'1110.7
2016-Jan-30 21:33N 54°26' E 011°59'9 9.1
2016-Jan-30 20:33N 54°30' E 012°13'4610.8
2016-Jan-30 16:17N 54°53' E 013°22'1311.9
2016-Jan-30 15:12N 54°48' E 013°43'1012.3
2016-Jan-30 14:21N 54°44' E 013°60'1012.2
2016-Jan-30 13:32N 54°40' E 014°15'2311.4
2016-Jan-30 11:32N 54°40' E 014°55'1111.2
2016-Jan-30 10:31N 54°42' E 015°14'7911.1
2016-Jan-30 03:24N 54°55' E 017°29'8 5.7
2016-Jan-30 02:03N 54°55' E 017°42'5 9.0
2016-Jan-30 01:33N 54°55' E 017°50'1111.0
2016-Jan-30 00:33N 54°56' E 018°09'1110.7
2016-Jan-29 23:33N 54°55' E 018°28'1211.8
2016-Jan-29 22:33N 54°49' E 018°45'1111.5
2016-Jan-29 21:33N 54°40' E 018°57'1111.4
2016-Jan-29 20:33N 54°32' E 018°43'6 5.7
2016-Jan-29 19:33N 54°32' E 018°33'0 0.2
2016-Jan-29 18:33N 54°32' E 018°33'0 0.0
2016-Jan-29 17:32N 54°32' E 018°33'0 0.0
2016-Jan-29 16:33N 54°32' E 018°33'0 0.0
2016-Jan-29 15:33N 54°32' E 018°33'0 0.0
2016-Jan-29 14:32N 54°32' E 018°33'0 0.0
2016-Jan-29 13:33N 54°32' E 018°33'0 0.0
2016-Jan-29 12:33N 54°32' E 018°33'0 0.0
2016-Jan-29 11:33N 54°32' E 018°33'0 0.0
2016-Jan-29 10:33N 54°32' E 018°33'0 0.0
2016-Jan-29 09:33N 54°32' E 018°33'0 0.0
2016-Jan-29 08:33N 54°32' E 018°33'0 0.0
2016-Jan-29 07:32N 54°32' E 018°33'0 0.0
2016-Jan-29 06:33N 54°32' E 018°33'0 0.0
2016-Jan-29 05:33N 54°32' E 018°33'  
Track history (hours):
 
Tides and Currents Weather Stations Pressure Air Temp Water Temp Dewpoint Dewpoint Depression Visibility Wind Speed Wind Dir Waves Ship Positions

Union Trader

Last reported at 2016-Feb-08 05:27 UTC. Time now 2016-Feb-08 06:08 UTC.
Position N 36°08' W 005°22'.

Length 190 m; draft 12.7 m.

Type: Cargo ship. MMSI: 240982000.

Date/timePositionNaut miles runAvg speedWind from/ knotsBaromVisibWave heightAir tempDewpointWater temp
2016-Feb-08 05:27N 36°08' W 005°22'0 0.0
2016-Feb-08 03:30N 36°08' W 005°22'0 0.0
2016-Feb-08 02:34N 36°08' W 005°22'0 0.0
2016-Feb-08 01:34N 36°08' W 005°22'0 0.1
2016-Feb-08 00:31N 36°08' W 005°22'0 0.1
2016-Feb-07 23:27N 36°08' W 005°22'0 0.2
2016-Feb-07 22:34N 36°08' W 005°22'0 0.2
2016-Feb-07 21:25N 36°08' W 005°22'0 0.0
2016-Feb-07 20:34N 36°08' W 005°22'0 0.0
2016-Feb-07 19:33N 36°08' W 005°22'1 0.5
2016-Feb-07 18:33N 36°08' W 005°22'4 4.3
2016-Feb-07 17:33N 36°03' W 005°22'8 8.1
2016-Feb-07 16:34N 35°58' W 005°29'1914.4
2016-Feb-07 15:16N 35°55' W 005°52'10713.1
2016-Feb-07 07:08N 36°18' W 008°01'813.0
2016-Feb-07 06:32N 36°20' W 008°10'1313.0
2016-Feb-07 05:32N 36°23' W 008°25'1312.5
2016-Feb-07 04:29N 36°26' W 008°41'1212.2
2016-Feb-07 03:32N 36°29' W 008°55'1313.3
2016-Feb-07 02:32N 36°33' W 009°11'1813.0
2016-Feb-07 01:08N 36°44' W 009°29'811.6
2016-Feb-07 00:29N 36°50' W 009°34'1212.2
2016-Feb-06 23:32N 37°02' W 009°37'1312.7
2016-Feb-06 22:32N 37°14' W 009°41'1313.1
2016-Feb-06 21:32N 37°27' W 009°44'1211.6
2016-Feb-06 20:32N 37°38' W 009°48'1312.8
2016-Feb-06 19:32N 37°51' W 009°51'1313.0
2016-Feb-06 18:32N 38°03' W 009°55'1313.7
2016-Feb-06 17:33N 38°16' W 009°59'1313.1
2016-Feb-06 16:32N 38°29' W 010°03'1212.1
2016-Feb-06 15:32N 38°41' W 010°06'1312.8
2016-Feb-06 14:32N 38°54' W 010°06'1211.6
2016-Feb-06 13:32N 39°06' W 010°06'1313.2
2016-Feb-06 12:33N 39°19' W 010°06'1111.3
2016-Feb-06 11:32N 39°30' W 010°06'1312.7
2016-Feb-06 10:32N 39°43' W 010°06'1312.7
2016-Feb-06 09:32N 39°56' W 010°06'1312.8
2016-Feb-06 08:32N 40°08' W 010°06'1312.9
2016-Feb-06 07:32N 40°21' W 010°06'1312.3
2016-Feb-06 06:29N 40°34' W 010°05'1212.3
2016-Feb-06 05:32N 40°46' W 010°05'1312.8
2016-Feb-06 04:32N 40°59' W 010°06'1312.9
2016-Feb-06 03:32N 41°12' W 010°06'1312.8
2016-Feb-06 02:32N 41°24' W 010°06'1211.8
2016-Feb-06 01:29N 41°37' W 010°06'1112.1
2016-Feb-06 00:32N 41°48' W 010°06'  
2016-Feb-03 13:07N 50°26' W 000°24'1110.5
2016-Feb-03 12:07N 50°29' W 000°08'710.7
2016-Feb-03 11:25N 50°31' E 000°03'910.9
2016-Feb-03 10:33N 50°34' E 000°17'3811.3
2016-Feb-03 07:13N 50°54' E 001°08'711.0
2016-Feb-03 06:34N 50°59' E 001°16'1111.3
2016-Feb-03 05:33N 51°06' E 001°30'1212.1
2016-Feb-03 04:34N 51°13' E 001°45'1313.1
2016-Feb-03 03:34N 51°25' E 001°56'1312.9
2016-Feb-03 02:34N 51°35' E 002°08'1312.5
2016-Feb-03 01:34N 51°44' E 002°22'397 8.8
2016-Feb-01 04:26N 57°20' E 008°27'2111.3
2016-Feb-01 02:32N 57°33' E 008°59'1111.1
2016-Feb-01 01:33N 57°39' E 009°15'1111.1
2016-Feb-01 00:33N 57°46' E 009°31'1010.3
2016-Jan-31 23:33N 57°49' E 009°50'1110.6
2016-Jan-31 22:33N 57°49' E 010°10'1010.5
2016-Jan-31 21:33N 57°49' E 010°29'10 9.9
2016-Jan-31 20:34N 57°48' E 010°48'1111.2
2016-Jan-31 19:33N 57°40' E 011°03'1211.7
2016-Jan-31 18:33N 57°32' E 011°18'1111.5
2016-Jan-31 17:33N 57°22' E 011°30'1212.3
2016-Jan-31 16:33N 57°10' E 011°38'1212.5
2016-Jan-31 15:33N 56°59' E 011°45'1211.8
2016-Jan-31 14:33N 56°47' E 011°52'1111.2
2016-Jan-31 13:34N 56°37' E 011°45'8410.4
2016-Jan-31 05:33N 55°17' E 011°04'1010.3
2016-Jan-31 04:33N 55°07' E 010°59'1010.1
2016-Jan-31 03:34N 54°57' E 010°55'1010.1
2016-Jan-31 02:34N 54°47' E 010°49'9 9.2
2016-Jan-31 01:33N 54°38' E 010°53'10 9.8
2016-Jan-31 00:34N 54°36' E 011°09'1010.0
2016-Jan-30 23:34N 54°32' E 011°25'1010.3
2016-Jan-30 22:34N 54°28' E 011°41'1110.7
2016-Jan-30 21:33N 54°26' E 011°59'9 9.1
2016-Jan-30 20:33N 54°30' E 012°13'4610.8
2016-Jan-30 16:17N 54°53' E 013°22'1311.9
2016-Jan-30 15:12N 54°48' E 013°43'1012.3
2016-Jan-30 14:21N 54°44' E 013°60'1012.2
2016-Jan-30 13:32N 54°40' E 014°15'2311.4
2016-Jan-30 11:32N 54°40' E 014°55'1111.2
2016-Jan-30 10:31N 54°42' E 015°14'7911.1
2016-Jan-30 03:24N 54°55' E 017°29'8 5.7
2016-Jan-30 02:03N 54°55' E 017°42'5 9.0
2016-Jan-30 01:33N 54°55' E 017°50'1111.0
2016-Jan-30 00:33N 54°56' E 018°09'1110.7
2016-Jan-29 23:33N 54°55' E 018°28'1211.8
2016-Jan-29 22:33N 54°49' E 018°45'1111.5
2016-Jan-29 21:33N 54°40' E 018°57'1111.4
2016-Jan-29 20:33N 54°32' E 018°43'6 5.7
2016-Jan-29 19:33N 54°32' E 018°33'0 0.2
2016-Jan-29 18:33N 54°32' E 018°33'0 0.0
2016-Jan-29 17:32N 54°32' E 018°33'0 0.0
2016-Jan-29 16:33N 54°32' E 018°33'0 0.0
2016-Jan-29 15:33N 54°32' E 018°33'0 0.0
2016-Jan-29 14:32N 54°32' E 018°33'0 0.0
2016-Jan-29 13:33N 54°32' E 018°33'0 0.0
2016-Jan-29 12:33N 54°32' E 018°33'0 0.0
2016-Jan-29 11:33N 54°32' E 018°33'0 0.0
2016-Jan-29 10:33N 54°32' E 018°33'0 0.0
2016-Jan-29 09:33N 54°32' E 018°33'0 0.0
2016-Jan-29 08:33N 54°32' E 018°33'0 0.0
2016-Jan-29 07:32N 54°32' E 018°33'0 0.0
2016-Jan-29 06:33N 54°32' E 018°33'0 0.0
2016-Jan-29 05:33N 54°32' E 018°33'  

Dump ship's entire track history